Lexington, KY (40502)

3:01 PM EDT on July 22, 2017 (GMT -0400)
Montclair | | Change Station
Active Advisory: Heat Advisory

Elev 1020 ft 38.02 °N, 84.49 °W | Updated 9 seconds ago

Partly Cloudy
Partly Cloudy
92.5 °F
Feels Like 102 °F
N
0.0
Wind Variable Wind from SE
Gusts 0.0 mph

Today
High -- | Low -- °F
--% Chance of Precip.
Yesterday
High -- | Low -- °F
Precip. -- in
Pressure 29.88 in
Visibility 7.0 miles
Clouds Few 4500 ft
Scattered Clouds 5000 ft
Scattered Clouds 6500 ft
Heat Index 102 °F
Dew Point 73 °F
Humidity 54%
Rainfall 0.00 in
Snow Depth Not available.
6:32 AM 8:55 PM
Waning Crescent, 1% visible
METAR KLEX 221854Z 24011KT 7SM FEW045 SCT050 SCT065 33/22 A2992 RMK AO2 LTG DSNT NE AND E SLP117 T03280222
Pressure 29.88 in
Visibility 7.0 miles
Clouds Few 4500 ft
Scattered Clouds 5000 ft
Scattered Clouds 6500 ft
Heat Index 102 °F
Dew Point 73 °F
Humidity 54%
Rainfall 0.00 in
Snow Depth Not available.
6:32 AM 8:55 PM
Waning Crescent, 1% visible
METAR KLEX 221854Z 24011KT 7SM FEW045 SCT050 SCT065 33/22 A2992 RMK AO2 LTG DSNT NE AND E SLP117 T03280222

Get Your Daily Forecast Email!

Thanks for signing up!

Be on the lookout for a verification email in your inbox.

You'll start receiving severe weather alerts in your inbox..

×

10-Day Weather Forecast

Almanac

Astronomy

Jul. 22, 2017 Rise Set
Actual Time
Civil Twilight
Nautical Twilight
Astronomical Twilight
Moon
Length of Visible Light
Length of Day
Tomorrow will be .
, % of the Moon is Illuminated

Today's Extremes

State Highs State Lows

Community

WunderPhotos

Category 6

Welcome to Category 6. This is the collective home for Weather Underground's featured writeups by Dr. Jeff Masters (right), Bob Henson (left), Chris Burt, and other regular contributors.

Nearby

Air Quality

  Air Quality AQ Index Pollutant
Not available.

Snow Depth

Station Depth Elevation

Earthquake Activity

City Distance Mag. Time & Date
Minimum magnitude displayed is 2.5.

Coastal Water Temperatures

Place Temperature

Stations

Nearby Weather Stations

Station Location Temp. Windchill Dew Point Humidity Wind Precip. Elev Updated Type
                   

Watches & Warnings

Heat Advisory
Issued: 1:39 PM CDT Jul. 22, 2017 – National Weather Service

... Heat advisory remains in effect until 8 PM EDT /7 PM CDT/ this
evening...

* heat index values... peak heat index values up to 105.

* Impacts... the combination of hot temperatures and high
humidity will lead to an increased risk of heat related stress
and illnesses. The very Young, the elderly, those without air
conditioning, and those participating in strenuous outdoor
activities will be the most susceptible.

Precautionary/preparedness actions...

Take extra precautions... if you work or spend time outside. When
possible... reschedule strenuous activities to early morning or
evening. Know the signs and symptoms of heat exhaustion and heat
stroke. Wear light weight and loose fitting clothing when
possible and drink plenty of water.